Terminal Aerodrome Forecast
Issued by NWS Bismarck, ND

Home | Current Version | Previous Version | Graphics & Text | Print | Product List | Glossary On
Versions: 1 2 3 4 5 6 7 8 9 10 11 12 13 14 15 16 17 18 19 20 21 22 23 24 25 26 27
000
FTUS43 KBIS 300300 AAA
TAFISN
TAF AMD
KISN 300314Z 3003/3024 34011KT P6SM SKC
     FM300700 34010KT P6SM -DZ OVC015
     FM301000 34009KT P6SM -FZDZ OVC009
     FM301200 35007KT P6SM OVC020
     FM301800 03008KT P6SM SCT035=

USA.gov is the U.S. government's official web portal to all federal, state and local government web resources and services.